sensor_id;sensor_type;location;lat;lon;timestamp;temperature;humidity
46730;DHT22;32476;50.002;11.854;2023-07-09T00:02:26;17.20;81.10
46730;DHT22;32476;50.002;11.854;2023-07-09T00:04:55;17.30;78.80
46730;DHT22;32476;50.002;11.854;2023-07-09T00:07:30;17.40;78.20
46730;DHT22;32476;50.002;11.854;2023-07-09T00:09:59;17.50;78.00
46730;DHT22;32476;50.002;11.854;2023-07-09T00:12:26;17.60;78.20
46730;DHT22;32476;50.002;11.854;2023-07-09T00:14:52;17.60;78.10
46730;DHT22;32476;50.002;11.854;2023-07-09T00:17:28;17.60;77.80
46730;DHT22;32476;50.002;11.854;2023-07-09T00:19:57;17.60;77.90
46730;DHT22;32476;50.002;11.854;2023-07-09T00:22:24;17.60;77.90
46730;DHT22;32476;50.002;11.854;2023-07-09T00:24:52;17.60;78.00
46730;DHT22;32476;50.002;11.854;2023-07-09T00:27:28;17.60;78.00
46730;DHT22;32476;50.002;11.854;2023-07-09T00:29:55;17.70;77.70
46730;DHT22;32476;50.002;11.854;2023-07-09T00:32:21;17.60;77.70
46730;DHT22;32476;50.002;11.854;2023-07-09T00:34:49;17.50;78.40
46730;DHT22;32476;50.002;11.854;2023-07-09T00:37:17;17.50;78.90
46730;DHT22;32476;50.002;11.854;2023-07-09T00:39:52;17.30;80.20
46730;DHT22;32476;50.002;11.854;2023-07-09T00:42:20;17.00;80.60
46730;DHT22;32476;50.002;11.854;2023-07-09T00:44:51;16.80;82.00
46730;DHT22;32476;50.002;11.854;2023-07-09T00:47:43;16.70;83.10
46730;DHT22;32476;50.002;11.854;2023-07-09T00:53:22;16.60;84.00
46730;DHT22;32476;50.002;11.854;2023-07-09T00:55:58;16.70;82.60
46730;DHT22;32476;50.002;11.854;2023-07-09T00:58:31;16.80;82.80
46730;DHT22;32476;50.002;11.854;2023-07-09T01:01:03;16.90;81.90
46730;DHT22;32476;50.002;11.854;2023-07-09T01:03:36;16.90;82.00
46730;DHT22;32476;50.002;11.854;2023-07-09T01:06:09;17.00;81.50
46730;DHT22;32476;50.002;11.854;2023-07-09T01:08:39;17.00;82.60
46730;DHT22;32476;50.002;11.854;2023-07-09T01:11:21;16.90;82.30
46730;DHT22;32476;50.002;11.854;2023-07-09T01:13:54;16.90;81.90
46730;DHT22;32476;50.002;11.854;2023-07-09T01:16:30;16.90;82.20
46730;DHT22;32476;50.002;11.854;2023-07-09T01:18:59;16.80;82.50
46730;DHT22;32476;50.002;11.854;2023-07-09T01:21:26;16.80;83.80
46730;DHT22;32476;50.002;11.854;2023-07-09T01:23:52;16.80;83.30
46730;DHT22;32476;50.002;11.854;2023-07-09T01:26:26;16.70;83.70
46730;DHT22;32476;50.002;11.854;2023-07-09T01:28:53;16.80;83.10
46730;DHT22;32476;50.002;11.854;2023-07-09T01:31:21;16.90;82.70
46730;DHT22;32476;50.002;11.854;2023-07-09T01:33:49;16.60;84.00
46730;DHT22;32476;50.002;11.854;2023-07-09T01:36:21;16.60;83.90
46730;DHT22;32476;50.002;11.854;2023-07-09T01:38:52;16.50;85.70
46730;DHT22;32476;50.002;11.854;2023-07-09T01:41:22;16.30;85.80
46730;DHT22;32476;50.002;11.854;2023-07-09T01:43:48;16.30;87.80
46730;DHT22;32476;50.002;11.854;2023-07-09T01:46:15;16.10;88.70
46730;DHT22;32476;50.002;11.854;2023-07-09T01:48:42;15.90;90.00
46730;DHT22;32476;50.002;11.854;2023-07-09T01:51:14;15.70;90.60
46730;DHT22;32476;50.002;11.854;2023-07-09T01:53:44;15.70;90.70
46730;DHT22;32476;50.002;11.854;2023-07-09T01:56:10;15.70;90.60
46730;DHT22;32476;50.002;11.854;2023-07-09T01:58:37;15.60;91.50
46730;DHT22;32476;50.002;11.854;2023-07-09T02:01:09;15.60;91.40
46730;DHT22;32476;50.002;11.854;2023-07-09T02:03:35;15.50;91.40
46730;DHT22;32476;50.002;11.854;2023-07-09T02:06:01;15.50;92.90
46730;DHT22;32476;50.002;11.854;2023-07-09T02:08:36;15.50;93.50
46730;DHT22;32476;50.002;11.854;2023-07-09T02:11:02;15.50;94.10
46730;DHT22;32476;50.002;11.854;2023-07-09T02:13:29;15.40;94.40
46730;DHT22;32476;50.002;11.854;2023-07-09T02:15:56;15.40;95.00
46730;DHT22;32476;50.002;11.854;2023-07-09T02:18:22;15.40;95.50
46730;DHT22;32476;50.002;11.854;2023-07-09T02:20:48;15.40;95.60
46730;DHT22;32476;50.002;11.854;2023-07-09T02:23:15;15.60;95.50
46730;DHT22;32476;50.002;11.854;2023-07-09T02:25:41;15.60;95.80
46730;DHT22;32476;50.002;11.854;2023-07-09T02:28:07;15.70;95.80
46730;DHT22;32476;50.002;11.854;2023-07-09T02:30:35;16.00;95.60
46730;DHT22;32476;50.002;11.854;2023-07-09T02:33:01;16.20;94.90
46730;DHT22;32476;50.002;11.854;2023-07-09T02:35:26;16.30;94.70
46730;DHT22;32476;50.002;11.854;2023-07-09T02:37:54;16.40;94.70
46730;DHT22;32476;50.002;11.854;2023-07-09T02:40:20;16.50;94.80
46730;DHT22;32476;50.002;11.854;2023-07-09T02:42:46;16.50;95.10
46730;DHT22;32476;50.002;11.854;2023-07-09T02:45:13;16.60;95.10
46730;DHT22;32476;50.002;11.854;2023-07-09T02:47:39;16.40;95.80
46730;DHT22;32476;50.002;11.854;2023-07-09T02:50:05;16.20;96.30
46730;DHT22;32476;50.002;11.854;2023-07-09T02:52:33;16.00;96.80
46730;DHT22;32476;50.002;11.854;2023-07-09T02:54:59;15.80;97.70
46730;DHT22;32476;50.002;11.854;2023-07-09T02:57:25;15.90;97.90
46730;DHT22;32476;50.002;11.854;2023-07-09T02:59:52;16.00;97.80
46730;DHT22;32476;50.002;11.854;2023-07-09T03:02:18;16.10;97.70
46730;DHT22;32476;50.002;11.854;2023-07-09T03:04:44;16.10;98.00
46730;DHT22;32476;50.002;11.854;2023-07-09T03:07:12;16.30;97.60
46730;DHT22;32476;50.002;11.854;2023-07-09T03:09:38;16.40;97.40
46730;DHT22;32476;50.002;11.854;2023-07-09T03:12:04;16.30;98.20
46730;DHT22;32476;50.002;11.854;2023-07-09T03:14:32;16.30;97.70
46730;DHT22;32476;50.002;11.854;2023-07-09T03:16:58;16.40;97.40
46730;DHT22;32476;50.002;11.854;2023-07-09T03:19:24;16.30;97.80
46730;DHT22;32476;50.002;11.854;2023-07-09T03:21:51;16.40;98.10
46730;DHT22;32476;50.002;11.854;2023-07-09T03:24:18;16.20;98.60
46730;DHT22;32476;50.002;11.854;2023-07-09T03:26:45;16.00;99.30
46730;DHT22;32476;50.002;11.854;2023-07-09T03:29:13;15.80;99.90
46730;DHT22;32476;50.002;11.854;2023-07-09T03:31:39;15.80;99.90
46730;DHT22;32476;50.002;11.854;2023-07-09T03:34:05;16.00;99.30
46730;DHT22;32476;50.002;11.854;2023-07-09T03:36:32;15.90;99.90
46730;DHT22;32476;50.002;11.854;2023-07-09T03:38:58;16.10;99.60
46730;DHT22;32476;50.002;11.854;2023-07-09T03:41:24;16.00;99.90
46730;DHT22;32476;50.002;11.854;2023-07-09T03:43:52;16.10;99.90
46730;DHT22;32476;50.002;11.854;2023-07-09T03:46:19;16.20;99.90
46730;DHT22;32476;50.002;11.854;2023-07-09T03:48:45;16.10;99.90
46730;DHT22;32476;50.002;11.854;2023-07-09T03:51:13;16.10;99.90
46730;DHT22;32476;50.002;11.854;2023-07-09T03:53:38;16.10;99.90
46730;DHT22;32476;50.002;11.854;2023-07-09T03:56:04;16.10;99.90
46730;DHT22;32476;50.002;11.854;2023-07-09T03:58:32;16.10;99.90
46730;DHT22;32476;50.002;11.854;2023-07-09T04:00:58;16.10;99.90
46730;DHT22;32476;50.002;11.854;2023-07-09T04:03:24;16.20;99.90
46730;DHT22;32476;50.002;11.854;2023-07-09T04:05:51;16.20;99.90
46730;DHT22;32476;50.002;11.854;2023-07-09T04:08:17;16.50;99.90
46730;DHT22;32476;50.002;11.854;2023-07-09T04:10:43;16.70;99.90
46730;DHT22;32476;50.002;11.854;2023-07-09T04:13:11;17.00;99.90
46730;DHT22;32476;50.002;11.854;2023-07-09T04:15:37;17.10;99.90
46730;DHT22;32476;50.002;11.854;2023-07-09T04:18:03;17.30;99.90
46730;DHT22;32476;50.002;11.854;2023-07-09T04:20:31;17.30;99.90
46730;DHT22;32476;50.002;11.854;2023-07-09T04:22:57;17.30;99.90
46730;DHT22;32476;50.002;11.854;2023-07-09T04:25:23;17.30;99.90
46730;DHT22;32476;50.002;11.854;2023-07-09T04:27:50;17.20;99.90
46730;DHT22;32476;50.002;11.854;2023-07-09T04:30:16;17.30;99.90
46730;DHT22;32476;50.002;11.854;2023-07-09T04:32:43;17.40;99.90
46730;DHT22;32476;50.002;11.854;2023-07-09T04:35:13;17.30;99.90
46730;DHT22;32476;50.002;11.854;2023-07-09T04:37:40;17.20;99.90
46730;DHT22;32476;50.002;11.854;2023-07-09T04:40:08;17.30;99.90
46730;DHT22;32476;50.002;11.854;2023-07-09T04:42:37;17.40;99.90
46730;DHT22;32476;50.002;11.854;2023-07-09T04:45:05;17.40;99.90
46730;DHT22;32476;50.002;11.854;2023-07-09T04:47:33;17.30;99.90
46730;DHT22;32476;50.002;11.854;2023-07-09T04:50:01;17.30;99.90
46730;DHT22;32476;50.002;11.854;2023-07-09T04:52:28;17.40;99.90
46730;DHT22;32476;50.002;11.854;2023-07-09T04:54:56;17.40;99.90
46730;DHT22;32476;50.002;11.854;2023-07-09T04:57:27;17.40;99.90
46730;DHT22;32476;50.002;11.854;2023-07-09T04:59:53;17.50;99.90
46730;DHT22;32476;50.002;11.854;2023-07-09T05:02:19;17.60;99.90
46730;DHT22;32476;50.002;11.854;2023-07-09T05:04:46;17.70;99.90
46730;DHT22;32476;50.002;11.854;2023-07-09T05:07:12;17.70;99.90
46730;DHT22;32476;50.002;11.854;2023-07-09T05:09:38;17.80;99.90
46730;DHT22;32476;50.002;11.854;2023-07-09T05:12:06;17.90;99.90
46730;DHT22;32476;50.002;11.854;2023-07-09T05:14:34;18.00;99.90
46730;DHT22;32476;50.002;11.854;2023-07-09T05:16:59;18.10;99.90
46730;DHT22;32476;50.002;11.854;2023-07-09T05:19:27;18.20;99.90
46730;DHT22;32476;50.002;11.854;2023-07-09T05:21:53;18.40;99.90
46730;DHT22;32476;50.002;11.854;2023-07-09T05:24:19;18.50;99.90
46730;DHT22;32476;50.002;11.854;2023-07-09T05:26:46;18.60;99.90
46730;DHT22;32476;50.002;11.854;2023-07-09T05:29:12;18.70;99.90
46730;DHT22;32476;50.002;11.854;2023-07-09T05:31:38;18.80;99.90
46730;DHT22;32476;50.002;11.854;2023-07-09T05:34:06;18.90;99.90
46730;DHT22;32476;50.002;11.854;2023-07-09T05:36:32;18.90;99.90
46730;DHT22;32476;50.002;11.854;2023-07-09T05:38:58;19.10;99.90
46730;DHT22;32476;50.002;11.854;2023-07-09T05:41:25;19.30;99.90
46730;DHT22;32476;50.002;11.854;2023-07-09T05:43:52;19.40;99.90
46730;DHT22;32476;50.002;11.854;2023-07-09T05:46:19;19.60;99.90
46730;DHT22;32476;50.002;11.854;2023-07-09T05:48:50;19.70;99.90
46730;DHT22;32476;50.002;11.854;2023-07-09T05:51:16;19.80;99.90
46730;DHT22;32476;50.002;11.854;2023-07-09T05:53:42;20.00;99.90
46730;DHT22;32476;50.002;11.854;2023-07-09T05:56:09;20.00;99.90
46730;DHT22;32476;50.002;11.854;2023-07-09T05:58:36;20.10;99.90
46730;DHT22;32476;50.002;11.854;2023-07-09T06:01:02;20.20;99.90
46730;DHT22;32476;50.002;11.854;2023-07-09T06:03:30;20.40;99.90
46730;DHT22;32476;50.002;11.854;2023-07-09T06:05:56;20.50;99.90
46730;DHT22;32476;50.002;11.854;2023-07-09T06:08:24;20.70;99.90
46730;DHT22;32476;50.002;11.854;2023-07-09T06:10:57;20.70;99.90
46730;DHT22;32476;50.002;11.854;2023-07-09T06:13:25;20.80;99.90
46730;DHT22;32476;50.002;11.854;2023-07-09T06:15:54;20.90;99.90
46730;DHT22;32476;50.002;11.854;2023-07-09T06:18:21;21.00;99.90
46730;DHT22;32476;50.002;11.854;2023-07-09T06:20:53;21.10;99.90
46730;DHT22;32476;50.002;11.854;2023-07-09T06:23:21;21.20;99.90
46730;DHT22;32476;50.002;11.854;2023-07-09T06:25:48;21.30;99.90
46730;DHT22;32476;50.002;11.854;2023-07-09T06:28:22;21.50;99.90
46730;DHT22;32476;50.002;11.854;2023-07-09T06:30:51;21.60;99.90
46730;DHT22;32476;50.002;11.854;2023-07-09T06:33:17;21.60;99.90
46730;DHT22;32476;50.002;11.854;2023-07-09T06:35:49;21.70;99.90
46730;DHT22;32476;50.002;11.854;2023-07-09T06:38:17;21.80;99.90
46730;DHT22;32476;50.002;11.854;2023-07-09T06:40:44;21.90;99.90
46730;DHT22;32476;50.002;11.854;2023-07-09T06:43:10;21.90;99.90
46730;DHT22;32476;50.002;11.854;2023-07-09T06:45:38;22.10;99.90
46730;DHT22;32476;50.002;11.854;2023-07-09T06:48:04;22.30;99.90
46730;DHT22;32476;50.002;11.854;2023-07-09T06:50:34;22.40;99.90
46730;DHT22;32476;50.002;11.854;2023-07-09T06:53:02;22.60;99.90
46730;DHT22;32476;50.002;11.854;2023-07-09T06:55:28;22.70;99.90
46730;DHT22;32476;50.002;11.854;2023-07-09T06:57:54;22.90;99.90
46730;DHT22;32476;50.002;11.854;2023-07-09T07:00:22;23.10;99.90
46730;DHT22;32476;50.002;11.854;2023-07-09T07:02:47;23.20;99.90
46730;DHT22;32476;50.002;11.854;2023-07-09T07:05:13;23.30;99.90
46730;DHT22;32476;50.002;11.854;2023-07-09T07:07:41;23.50;99.90
46730;DHT22;32476;50.002;11.854;2023-07-09T07:10:07;23.70;99.90
46730;DHT22;32476;50.002;11.854;2023-07-09T07:12:42;23.90;99.90
46730;DHT22;32476;50.002;11.854;2023-07-09T07:15:16;24.30;99.90
46730;DHT22;32476;50.002;11.854;2023-07-09T07:17:43;24.50;99.90
46730;DHT22;32476;50.002;11.854;2023-07-09T07:20:13;24.80;99.90
46730;DHT22;32476;50.002;11.854;2023-07-09T07:22:39;25.10;99.90
46730;DHT22;32476;50.002;11.854;2023-07-09T07:25:06;25.40;99.50
46730;DHT22;32476;50.002;11.854;2023-07-09T07:27:37;25.70;98.40
46730;DHT22;32476;50.002;11.854;2023-07-09T07:30:05;26.00;99.90
46730;DHT22;32476;50.002;11.854;2023-07-09T07:32:44;26.30;98.60
46730;DHT22;32476;50.002;11.854;2023-07-09T07:35:12;26.60;97.50
46730;DHT22;32476;50.002;11.854;2023-07-09T07:37:41;26.80;96.30
46730;DHT22;32476;50.002;11.854;2023-07-09T07:40:09;27.00;95.60
46730;DHT22;32476;50.002;11.854;2023-07-09T07:42:35;27.40;96.30
46730;DHT22;32476;50.002;11.854;2023-07-09T07:45:04;27.80;96.10
46730;DHT22;32476;50.002;11.854;2023-07-09T07:47:31;27.80;92.60
46730;DHT22;32476;50.002;11.854;2023-07-09T07:49:57;27.90;91.40
46730;DHT22;32476;50.002;11.854;2023-07-09T07:52:24;28.20;92.40
46730;DHT22;32476;50.002;11.854;2023-07-09T07:54:51;28.50;91.70
46730;DHT22;32476;50.002;11.854;2023-07-09T07:57:18;28.50;90.30
46730;DHT22;32476;50.002;11.854;2023-07-09T07:59:46;28.60;90.30
46730;DHT22;32476;50.002;11.854;2023-07-09T08:02:13;28.90;85.70
46730;DHT22;32476;50.002;11.854;2023-07-09T08:04:40;28.90;83.70
46730;DHT22;32476;50.002;11.854;2023-07-09T08:07:09;29.10;86.30
46730;DHT22;32476;50.002;11.854;2023-07-09T08:09:36;29.30;84.50
46730;DHT22;32476;50.002;11.854;2023-07-09T08:12:03;29.40;81.60
46730;DHT22;32476;50.002;11.854;2023-07-09T08:14:37;29.40;78.90
46730;DHT22;32476;50.002;11.854;2023-07-09T08:17:04;29.60;81.70
46730;DHT22;32476;50.002;11.854;2023-07-09T08:19:31;29.90;78.40
46730;DHT22;32476;50.002;11.854;2023-07-09T08:21:59;29.70;76.70
46730;DHT22;32476;50.002;11.854;2023-07-09T08:24:25;29.70;74.70
46730;DHT22;32476;50.002;11.854;2023-07-09T08:26:50;29.30;72.30
46730;DHT22;32476;50.002;11.854;2023-07-09T08:29:18;29.30;73.00
46730;DHT22;32476;50.002;11.854;2023-07-09T08:31:44;29.00;70.70
46730;DHT22;32476;50.002;11.854;2023-07-09T08:34:11;29.00;71.60
46730;DHT22;32476;50.002;11.854;2023-07-09T08:36:38;28.80;70.70
46730;DHT22;32476;50.002;11.854;2023-07-09T08:39:04;29.10;69.80
46730;DHT22;32476;50.002;11.854;2023-07-09T08:41:37;29.20;71.40
46730;DHT22;32476;50.002;11.854;2023-07-09T08:47:31;28.80;70.00
46730;DHT22;32476;50.002;11.854;2023-07-09T08:50:09;28.80;69.80
46730;DHT22;32476;50.002;11.854;2023-07-09T08:52:41;28.80;69.50
46730;DHT22;32476;50.002;11.854;2023-07-09T08:55:13;28.90;69.30
46730;DHT22;32476;50.002;11.854;2023-07-09T08:57:44;28.80;68.80
46730;DHT22;32476;50.002;11.854;2023-07-09T09:00:18;28.90;67.10
46730;DHT22;32476;50.002;11.854;2023-07-09T09:02:58;29.60;69.30
46730;DHT22;32476;50.002;11.854;2023-07-09T09:05:27;29.40;67.40
46730;DHT22;32476;50.002;11.854;2023-07-09T09:08:36;29.70;67.90
46730;DHT22;32476;50.002;11.854;2023-07-09T09:11:31;30.00;67.10
46730;DHT22;32476;50.002;11.854;2023-07-09T09:14:29;30.00;66.40
46730;DHT22;32476;50.002;11.854;2023-07-09T09:17:02;30.30;67.90
46730;DHT22;32476;50.002;11.854;2023-07-09T09:19:37;30.10;67.60
46730;DHT22;32476;50.002;11.854;2023-07-09T09:22:09;30.20;68.40
46730;DHT22;32476;50.002;11.854;2023-07-09T09:25:05;30.50;64.60
46730;DHT22;32476;50.002;11.854;2023-07-09T09:27:43;30.50;66.40
46730;DHT22;32476;50.002;11.854;2023-07-09T09:30:20;30.40;64.60
46730;DHT22;32476;50.002;11.854;2023-07-09T09:32:59;30.80;64.20
46730;DHT22;32476;50.002;11.854;2023-07-09T09:35:32;31.10;64.60
46730;DHT22;32476;50.002;11.854;2023-07-09T09:38:08;31.20;62.20
46730;DHT22;32476;50.002;11.854;2023-07-09T09:40:36;31.40;61.80
46730;DHT22;32476;50.002;11.854;2023-07-09T09:43:13;31.30;61.80
46730;DHT22;32476;50.002;11.854;2023-07-09T09:45:43;31.20;62.80
46730;DHT22;32476;50.002;11.854;2023-07-09T09:48:18;31.10;59.30
46730;DHT22;32476;50.002;11.854;2023-07-09T09:50:55;31.30;61.40
46730;DHT22;32476;50.002;11.854;2023-07-09T09:53:29;31.70;62.20
46730;DHT22;32476;50.002;11.854;2023-07-09T09:56:05;31.40;60.60
46730;DHT22;32476;50.002;11.854;2023-07-09T09:58:33;30.50;61.70
46730;DHT22;32476;50.002;11.854;2023-07-09T10:01:00;30.50;62.60
46730;DHT22;32476;50.002;11.854;2023-07-09T10:03:36;30.60;61.50
46730;DHT22;32476;50.002;11.854;2023-07-09T10:06:18;30.60;61.50
46730;DHT22;32476;50.002;11.854;2023-07-09T10:08:55;30.50;60.80
46730;DHT22;32476;50.002;11.854;2023-07-09T10:16:56;31.60;59.70
46730;DHT22;32476;50.002;11.854;2023-07-09T10:19:35;31.80;60.80
46730;DHT22;32476;50.002;11.854;2023-07-09T10:22:48;31.60;60.60
46730;DHT22;32476;50.002;11.854;2023-07-09T10:28:26;32.10;59.00
46730;DHT22;32476;50.002;11.854;2023-07-09T10:31:14;31.20;58.30
46730;DHT22;32476;50.002;11.854;2023-07-09T10:34:11;30.90;59.60
46730;DHT22;32476;50.002;11.854;2023-07-09T10:40:02;32.40;55.60
46730;DHT22;32476;50.002;11.854;2023-07-09T10:42:46;33.10;58.60
46730;DHT22;32476;50.002;11.854;2023-07-09T10:45:40;33.30;58.40
46730;DHT22;32476;50.002;11.854;2023-07-09T10:48:14;33.30;59.20
46730;DHT22;32476;50.002;11.854;2023-07-09T10:50:49;33.10;57.10
46730;DHT22;32476;50.002;11.854;2023-07-09T10:53:55;33.00;57.00
46730;DHT22;32476;50.002;11.854;2023-07-09T10:56:32;33.30;61.70
46730;DHT22;32476;50.002;11.854;2023-07-09T10:59:28;33.10;59.00
46730;DHT22;32476;50.002;11.854;2023-07-09T11:04:56;32.90;57.00
46730;DHT22;32476;50.002;11.854;2023-07-09T11:07:42;32.80;56.10
46730;DHT22;32476;50.002;11.854;2023-07-09T11:10:52;33.20;58.60
46730;DHT22;32476;50.002;11.854;2023-07-09T11:13:35;33.10;59.80
46730;DHT22;32476;50.002;11.854;2023-07-09T11:16:06;32.30;58.80
46730;DHT22;32476;50.002;11.854;2023-07-09T11:18:35;31.50;59.90
46730;DHT22;32476;50.002;11.854;2023-07-09T11:23:44;31.20;59.10
46730;DHT22;32476;50.002;11.854;2023-07-09T11:26:35;32.00;62.30
46730;DHT22;32476;50.002;11.854;2023-07-09T11:31:41;32.00;58.30
46730;DHT22;32476;50.002;11.854;2023-07-09T11:34:17;32.20;55.70
46730;DHT22;32476;50.002;11.854;2023-07-09T11:37:08;32.50;61.20
46730;DHT22;32476;50.002;11.854;2023-07-09T11:45:12;33.00;58.60
46730;DHT22;32476;50.002;11.854;2023-07-09T11:47:45;32.90;59.00
46730;DHT22;32476;50.002;11.854;2023-07-09T11:50:26;33.40;57.30
46730;DHT22;32476;50.002;11.854;2023-07-09T11:53:04;32.60;56.60
46730;DHT22;32476;50.002;11.854;2023-07-09T11:55:40;32.20;57.00
46730;DHT22;32476;50.002;11.854;2023-07-09T11:58:16;32.00;59.00
46730;DHT22;32476;50.002;11.854;2023-07-09T12:01:03;32.60;59.20
46730;DHT22;32476;50.002;11.854;2023-07-09T12:03:39;32.60;57.50
46730;DHT22;32476;50.002;11.854;2023-07-09T12:06:21;33.40;57.60
46730;DHT22;32476;50.002;11.854;2023-07-09T12:08:51;33.90;58.80
46730;DHT22;32476;50.002;11.854;2023-07-09T12:11:22;33.20;56.70
46730;DHT22;32476;50.002;11.854;2023-07-09T12:13:52;33.00;56.00
46730;DHT22;32476;50.002;11.854;2023-07-09T12:16:25;32.60;54.70
46730;DHT22;32476;50.002;11.854;2023-07-09T12:18:55;32.90;54.30
46730;DHT22;32476;50.002;11.854;2023-07-09T12:21:22;32.50;53.70
46730;DHT22;32476;50.002;11.854;2023-07-09T12:23:50;32.90;59.00
46730;DHT22;32476;50.002;11.854;2023-07-09T12:26:19;33.70;54.00
46730;DHT22;32476;50.002;11.854;2023-07-09T12:28:53;34.00;57.00
46730;DHT22;32476;50.002;11.854;2023-07-09T12:31:28;34.10;57.40
46730;DHT22;32476;50.002;11.854;2023-07-09T12:33:57;33.80;55.20
46730;DHT22;32476;50.002;11.854;2023-07-09T12:36:27;33.90;56.70
46730;DHT22;32476;50.002;11.854;2023-07-09T12:38:59;33.30;53.80
46730;DHT22;32476;50.002;11.854;2023-07-09T12:41:37;33.50;57.70
46730;DHT22;32476;50.002;11.854;2023-07-09T12:44:04;33.70;54.80
46730;DHT22;32476;50.002;11.854;2023-07-09T12:46:32;32.80;53.50
46730;DHT22;32476;50.002;11.854;2023-07-09T12:48:58;32.10;54.30
46730;DHT22;32476;50.002;11.854;2023-07-09T12:51:28;31.80;55.70
46730;DHT22;32476;50.002;11.854;2023-07-09T12:54:18;31.40;56.10
46730;DHT22;32476;50.002;11.854;2023-07-09T12:56:50;32.00;57.40
46730;DHT22;32476;50.002;11.854;2023-07-09T12:59:22;32.50;57.70
46730;DHT22;32476;50.002;11.854;2023-07-09T13:04:50;33.40;55.10
46730;DHT22;32476;50.002;11.854;2023-07-09T13:07:38;31.80;55.10
46730;DHT22;32476;50.002;11.854;2023-07-09T13:10:22;31.50;56.90
46730;DHT22;32476;50.002;11.854;2023-07-09T13:12:54;31.80;57.60
46730;DHT22;32476;50.002;11.854;2023-07-09T13:15:25;32.60;57.30
46730;DHT22;32476;50.002;11.854;2023-07-09T13:18:02;33.50;54.80
46730;DHT22;32476;50.002;11.854;2023-07-09T13:20:33;33.90;52.90
46730;DHT22;32476;50.002;11.854;2023-07-09T13:23:01;34.00;54.10
46730;DHT22;32476;50.002;11.854;2023-07-09T13:25:33;34.30;55.10
46730;DHT22;32476;50.002;11.854;2023-07-09T13:27:59;34.30;53.20
46730;DHT22;32476;50.002;11.854;2023-07-09T13:30:26;34.20;53.70
46730;DHT22;32476;50.002;11.854;2023-07-09T13:32:53;34.20;53.20
46730;DHT22;32476;50.002;11.854;2023-07-09T13:35:19;34.40;53.80
46730;DHT22;32476;50.002;11.854;2023-07-09T13:37:46;33.90;54.20
46730;DHT22;32476;50.002;11.854;2023-07-09T13:40:15;33.70;53.20
46730;DHT22;32476;50.002;11.854;2023-07-09T13:42:43;34.10;54.30
46730;DHT22;32476;50.002;11.854;2023-07-09T13:45:20;34.20;52.80
46730;DHT22;32476;50.002;11.854;2023-07-09T13:47:52;34.20;52.80
46730;DHT22;32476;50.002;11.854;2023-07-09T13:50:19;34.20;52.70
46730;DHT22;32476;50.002;11.854;2023-07-09T13:52:46;33.90;51.40
46730;DHT22;32476;50.002;11.854;2023-07-09T13:55:22;34.20;50.40
46730;DHT22;32476;50.002;11.854;2023-07-09T13:57:49;34.60;52.10
46730;DHT22;32476;50.002;11.854;2023-07-09T14:00:17;35.00;52.70
46730;DHT22;32476;50.002;11.854;2023-07-09T14:02:45;34.80;50.30
46730;DHT22;32476;50.002;11.854;2023-07-09T14:05:13;34.20;50.40
46730;DHT22;32476;50.002;11.854;2023-07-09T14:07:42;34.60;51.20
46730;DHT22;32476;50.002;11.854;2023-07-09T14:10:13;34.00;53.00
46730;DHT22;32476;50.002;11.854;2023-07-09T14:12:46;34.70;54.90
46730;DHT22;32476;50.002;11.854;2023-07-09T14:15:16;34.60;51.60
46730;DHT22;32476;50.002;11.854;2023-07-09T14:17:48;34.20;52.50
46730;DHT22;32476;50.002;11.854;2023-07-09T14:20:16;34.00;51.60
46730;DHT22;32476;50.002;11.854;2023-07-09T14:22:43;33.90;51.90
46730;DHT22;32476;50.002;11.854;2023-07-09T14:25:19;33.40;50.60
46730;DHT22;32476;50.002;11.854;2023-07-09T14:27:47;34.00;56.50
46730;DHT22;32476;50.002;11.854;2023-07-09T14:30:20;34.50;52.90
46730;DHT22;32476;50.002;11.854;2023-07-09T14:32:48;34.90;50.60
46730;DHT22;32476;50.002;11.854;2023-07-09T14:35:22;34.70;49.50
46730;DHT22;32476;50.002;11.854;2023-07-09T14:37:51;34.10;50.80
46730;DHT22;32476;50.002;11.854;2023-07-09T14:40:20;33.30;51.90
46730;DHT22;32476;50.002;11.854;2023-07-09T14:42:48;33.40;51.20
46730;DHT22;32476;50.002;11.854;2023-07-09T14:45:25;33.70;50.90
46730;DHT22;32476;50.002;11.854;2023-07-09T14:47:55;34.00;50.90
46730;DHT22;32476;50.002;11.854;2023-07-09T14:50:23;34.00;50.10
46730;DHT22;32476;50.002;11.854;2023-07-09T14:52:49;34.20;51.40
46730;DHT22;32476;50.002;11.854;2023-07-09T14:55:19;34.70;53.30
46730;DHT22;32476;50.002;11.854;2023-07-09T14:57:47;35.10;51.70
46730;DHT22;32476;50.002;11.854;2023-07-09T15:00:18;35.00;49.60
46730;DHT22;32476;50.002;11.854;2023-07-09T15:02:50;35.00;49.20
46730;DHT22;32476;50.002;11.854;2023-07-09T15:05:22;35.40;48.80
46730;DHT22;32476;50.002;11.854;2023-07-09T15:07:51;35.20;48.80
46730;DHT22;32476;50.002;11.854;2023-07-09T15:10:25;35.80;49.00
46730;DHT22;32476;50.002;11.854;2023-07-09T15:12:54;35.90;50.20
46730;DHT22;32476;50.002;11.854;2023-07-09T15:15:29;35.40;48.10
46730;DHT22;32476;50.002;11.854;2023-07-09T15:18:09;35.20;47.50
46730;DHT22;32476;50.002;11.854;2023-07-09T15:20:43;34.60;47.40
46730;DHT22;32476;50.002;11.854;2023-07-09T15:23:15;34.30;48.80
46730;DHT22;32476;50.002;11.854;2023-07-09T15:25:41;34.60;48.80
46730;DHT22;32476;50.002;11.854;2023-07-09T15:28:10;34.80;52.40
46730;DHT22;32476;50.002;11.854;2023-07-09T15:30:38;34.60;49.30
46730;DHT22;32476;50.002;11.854;2023-07-09T15:33:05;34.60;50.60
46730;DHT22;32476;50.002;11.854;2023-07-09T15:35:39;34.60;50.10
46730;DHT22;32476;50.002;11.854;2023-07-09T15:40:48;34.40;48.80
46730;DHT22;32476;50.002;11.854;2023-07-09T15:43:14;34.00;49.30
46730;DHT22;32476;50.002;11.854;2023-07-09T15:45:51;33.70;50.20
46730;DHT22;32476;50.002;11.854;2023-07-09T15:48:32;33.70;50.00
46730;DHT22;32476;50.002;11.854;2023-07-09T15:51:03;33.60;50.50
46730;DHT22;32476;50.002;11.854;2023-07-09T15:53:32;33.90;49.50
46730;DHT22;32476;50.002;11.854;2023-07-09T15:56:03;33.60;49.70
46730;DHT22;32476;50.002;11.854;2023-07-09T15:58:50;33.20;50.30
46730;DHT22;32476;50.002;11.854;2023-07-09T16:01:19;33.60;49.90
46730;DHT22;32476;50.002;11.854;2023-07-09T16:03:52;33.60;50.50
46730;DHT22;32476;50.002;11.854;2023-07-09T16:06:23;33.70;49.70
46730;DHT22;32476;50.002;11.854;2023-07-09T16:08:50;33.90;51.20
46730;DHT22;32476;50.002;11.854;2023-07-09T16:11:20;34.20;51.90
46730;DHT22;32476;50.002;11.854;2023-07-09T16:13:49;34.40;51.70
46730;DHT22;32476;50.002;11.854;2023-07-09T16:16:20;34.40;50.40